createdAt,value
2023-04-08T00:00:09.145Z,28.60
2023-04-08T00:02:36.587Z,27.33
2023-04-08T00:05:03.995Z,26.67
2023-04-08T00:07:30.975Z,26.20
2023-04-08T00:09:57.942Z,29.27
2023-04-08T00:12:24.834Z,31.80
2023-04-08T00:14:51.711Z,35.40
2023-04-08T00:17:21.194Z,54.67
2023-04-08T00:19:48.133Z,47.23
2023-04-08T00:22:18.542Z,47.57
2023-04-08T00:24:45.615Z,42.40
2023-04-08T00:27:12.528Z,46.33
2023-04-08T00:29:40.813Z,44.67
2023-04-08T00:32:08.142Z,45.33
2023-04-08T00:34:35.101Z,41.33
2023-04-08T00:37:01.999Z,42.40
2023-04-08T00:39:28.928Z,41.23
2023-04-08T00:41:57.680Z,43.87
2023-04-08T00:44:25.908Z,45.10
2023-04-08T00:46:53.106Z,39.40
2023-04-08T00:49:20.466Z,39.17
2023-04-08T00:51:47.464Z,38.50
2023-04-08T00:54:14.540Z,39.63
2023-04-08T00:56:45.705Z,36.07
2023-04-08T00:59:15.937Z,37.30
2023-04-08T01:01:51.255Z,29.10
2023-04-08T01:04:44.323Z,31.97
2023-04-08T01:07:20.115Z,33.77
2023-04-08T01:09:52.238Z,30.63
2023-04-08T01:12:27.404Z,29.03
2023-04-08T01:15:01.871Z,28.03
2023-04-08T01:17:30.699Z,26.83
2023-04-08T01:19:59.661Z,28.13
2023-04-08T01:22:44.054Z,28.20
2023-04-08T01:25:17.296Z,26.63
2023-04-08T01:27:44.552Z,33.80
2023-04-08T01:30:14.148Z,29.07
2023-04-08T01:32:50.076Z,25.50
2023-04-08T01:35:17.388Z,25.00
2023-04-08T01:37:45.885Z,26.80
2023-04-08T01:40:14.269Z,27.23
2023-04-08T01:42:42.377Z,27.40
2023-04-08T01:45:10.657Z,28.17
2023-04-08T01:47:39.695Z,28.83
2023-04-08T01:50:09.430Z,28.27
2023-04-08T01:52:38.950Z,27.03
2023-04-08T01:55:07.794Z,26.57
2023-04-08T01:57:38.439Z,27.73
2023-04-08T02:00:10.505Z,26.80
2023-04-08T02:02:39.257Z,55.03
2023-04-08T02:05:06.996Z,43.87
2023-04-08T02:07:33.911Z,33.50
2023-04-08T02:10:00.955Z,31.13
2023-04-08T02:12:28.663Z,33.83
2023-04-08T02:14:57.940Z,29.00
2023-04-08T02:17:47.355Z,43.90
2023-04-08T02:20:40.006Z,23.87
2023-04-08T02:23:20.473Z,27.40
2023-04-08T02:25:49.715Z,33.27
2023-04-08T02:28:19.610Z,33.70
2023-04-08T02:30:53.942Z,31.27
2023-04-08T02:33:24.162Z,29.60
2023-04-08T02:35:54.975Z,27.30
2023-04-08T02:38:24.217Z,26.67
2023-04-08T02:40:51.668Z,24.70
2023-04-08T02:43:18.810Z,25.03
2023-04-08T02:45:46.244Z,26.10
2023-04-08T02:48:13.262Z,24.30
2023-04-08T02:50:41.210Z,23.23
2023-04-08T02:53:09.773Z,23.43
2023-04-08T02:55:36.755Z,22.13
2023-04-08T02:58:03.769Z,23.47
2023-04-08T03:00:30.951Z,24.87
2023-04-08T03:02:58.122Z,24.40
2023-04-08T03:05:27.242Z,24.40
2023-04-08T03:07:54.187Z,24.27
2023-04-08T03:10:21.232Z,23.57
2023-04-08T03:12:48.160Z,22.73
2023-04-08T03:15:15.481Z,21.90
2023-04-08T03:17:42.656Z,21.30
2023-04-08T03:20:10.243Z,23.30
2023-04-08T03:22:37.874Z,20.93
2023-04-08T03:25:05.165Z,21.33
2023-04-08T03:27:32.165Z,20.60
2023-04-08T03:29:59.095Z,20.00
2023-04-08T03:32:26.370Z,20.70
2023-04-08T03:34:54.034Z,20.93
2023-04-08T03:37:21.021Z,19.67
2023-04-08T03:39:48.253Z,19.57
2023-04-08T03:42:15.379Z,20.27
2023-04-08T03:44:42.309Z,18.83
2023-04-08T03:47:09.454Z,21.30
2023-04-08T03:49:36.478Z,20.57
2023-04-08T03:52:03.516Z,20.10
2023-04-08T03:54:30.636Z,21.47
2023-04-08T03:56:57.622Z,19.37
2023-04-08T03:59:24.801Z,19.17
2023-04-08T04:01:53.858Z,21.30
2023-04-08T04:04:21.496Z,19.57
2023-04-08T04:06:49.009Z,18.17
2023-04-08T04:09:17.079Z,18.97
2023-04-08T04:11:44.268Z,18.97
2023-04-08T04:14:11.948Z,18.90
2023-04-08T04:16:40.160Z,19.13
2023-04-08T04:19:07.387Z,19.30
2023-04-08T04:21:35.546Z,18.03
2023-04-08T04:24:02.400Z,20.00
2023-04-08T04:26:29.395Z,19.57
2023-04-08T04:28:56.344Z,17.80
2023-04-08T04:31:27.993Z,19.00
2023-04-08T04:33:55.557Z,18.90
2023-04-08T04:36:22.761Z,18.90
2023-04-08T04:38:50.850Z,18.47
2023-04-08T04:41:18.186Z,19.77
2023-04-08T04:43:45.342Z,20.13
2023-04-08T04:46:12.350Z,20.97
2023-04-08T04:48:40.860Z,19.60
2023-04-08T04:51:10.227Z,20.17
2023-04-08T04:53:38.821Z,21.30
2023-04-08T04:56:05.997Z,24.07
2023-04-08T04:58:32.976Z,25.10
2023-04-08T05:00:59.942Z,22.40
2023-04-08T05:03:26.937Z,24.67
2023-04-08T05:05:54.712Z,24.87
2023-04-08T05:08:22.589Z,27.30
2023-04-08T05:10:51.084Z,25.80
2023-04-08T05:13:18.534Z,24.53
2023-04-08T05:15:48.583Z,24.87
2023-04-08T05:18:15.668Z,23.70
2023-04-08T05:20:42.707Z,25.00
2023-04-08T05:23:09.653Z,25.07
2023-04-08T05:25:36.576Z,25.17
2023-04-08T05:28:04.347Z,28.07
2023-04-08T05:30:31.890Z,26.30
2023-04-08T05:33:00.624Z,25.77
2023-04-08T05:35:28.520Z,25.47
2023-04-08T05:37:55.547Z,26.10
2023-04-08T05:40:22.620Z,27.53
2023-04-08T05:42:49.589Z,26.07
2023-04-08T05:45:16.713Z,27.10
2023-04-08T05:47:43.935Z,26.83
2023-04-08T05:50:11.558Z,27.73
2023-04-08T05:52:41.961Z,27.77
2023-04-08T05:55:09.419Z,30.63
2023-04-08T05:57:36.548Z,29.27
2023-04-08T06:00:05.596Z,27.60
2023-04-08T06:02:32.703Z,26.17
2023-04-08T06:04:59.826Z,28.20
2023-04-08T06:07:27.012Z,27.40
2023-04-08T06:09:53.976Z,27.40
2023-04-08T06:12:21.175Z,25.03
2023-04-08T06:14:48.203Z,24.70
2023-04-08T06:17:15.119Z,24.57
2023-04-08T06:19:42.209Z,25.13
2023-04-08T06:22:09.668Z,23.67
2023-04-08T06:24:36.596Z,21.13
2023-04-08T06:27:03.569Z,20.80
2023-04-08T06:29:31.396Z,19.30
2023-04-08T06:31:58.924Z,18.10
2023-04-08T06:34:26.212Z,18.43
2023-04-08T06:36:53.145Z,18.63
2023-04-08T06:39:21.606Z,18.27
2023-04-08T06:41:48.777Z,18.70
2023-04-08T06:44:16.029Z,17.60
2023-04-08T06:46:42.965Z,16.67
2023-04-08T06:49:09.848Z,17.50
2023-04-08T06:51:37.065Z,16.37
2023-04-08T06:54:03.976Z,17.07
2023-04-08T06:56:31.400Z,18.77
2023-04-08T06:58:58.657Z,16.20
2023-04-08T07:01:25.906Z,16.17
2023-04-08T07:03:52.994Z,16.40
2023-04-08T07:06:19.959Z,17.40
2023-04-08T07:08:47.011Z,16.33
2023-04-08T07:11:13.944Z,17.67
2023-04-08T07:13:40.950Z,14.33
2023-04-08T07:16:08.014Z,15.13
2023-04-08T07:18:34.983Z,14.70
2023-04-08T07:21:01.969Z,13.83
2023-04-08T07:23:29.446Z,14.00
2023-04-08T07:25:56.400Z,14.57
2023-04-08T07:28:23.338Z,13.40
2023-04-08T07:30:51.270Z,13.30
2023-04-08T07:33:18.725Z,12.97
2023-04-08T07:35:45.856Z,13.63
2023-04-08T07:38:13.531Z,12.60
2023-04-08T07:40:40.800Z,13.10
2023-04-08T07:43:09.330Z,11.90
2023-04-08T07:45:36.384Z,15.43
2023-04-08T07:48:03.274Z,11.80
2023-04-08T07:50:30.274Z,11.43
2023-04-08T07:52:57.396Z,11.10
2023-04-08T07:55:24.353Z,11.10
2023-04-08T07:57:51.403Z,10.80
2023-04-08T08:00:21.876Z,10.57
2023-04-08T08:02:49.281Z,12.00
2023-04-08T08:05:16.443Z,11.10
2023-04-08T08:07:43.636Z,11.90
2023-04-08T08:10:11.404Z,10.83
2023-04-08T08:12:39.117Z,11.20
2023-04-08T08:15:06.977Z,13.27
2023-04-08T08:17:34.105Z,12.60
2023-04-08T08:20:01.694Z,12.33
2023-04-08T08:22:28.618Z,12.77
2023-04-08T08:24:59.548Z,12.57
2023-04-08T08:27:26.598Z,11.17
2023-04-08T08:29:53.504Z,14.17
2023-04-08T08:32:20.898Z,11.77
2023-04-08T08:34:48.149Z,11.93
2023-04-08T08:37:16.141Z,11.80
2023-04-08T08:39:43.128Z,10.90
2023-04-08T08:42:27.927Z,12.00
2023-04-08T08:44:55.090Z,11.37
2023-04-08T08:47:23.333Z,12.87
2023-04-08T08:49:50.319Z,12.23
2023-04-08T08:52:18.181Z,11.23
2023-04-08T08:54:48.401Z,11.07
2023-04-08T08:57:19.691Z,11.60
2023-04-08T08:59:47.918Z,10.93
2023-04-08T09:02:30.190Z,10.57
2023-04-08T09:05:02.524Z,10.00
2023-04-08T09:07:31.267Z,9.50
2023-04-08T09:10:01.460Z,10.10
2023-04-08T09:12:28.667Z,9.97
2023-04-08T09:15:06.315Z,9.63
2023-04-08T09:17:41.549Z,9.73
2023-04-08T09:20:12.736Z,9.40
2023-04-08T09:23:06.082Z,9.80
2023-04-08T09:25:34.229Z,9.40
2023-04-08T09:28:02.934Z,9.90
2023-04-08T09:30:32.499Z,8.23
2023-04-08T09:33:02.912Z,9.70
2023-04-08T09:35:29.839Z,8.97
2023-04-08T09:37:56.820Z,8.67
2023-04-08T09:40:27.530Z,7.77
2023-04-08T09:42:57.310Z,8.87
2023-04-08T09:45:26.029Z,8.73
2023-04-08T09:48:04.925Z,7.93
2023-04-08T09:50:33.327Z,8.43
2023-04-08T09:53:13.829Z,8.37
2023-04-08T09:55:45.923Z,9.23
2023-04-08T09:58:19.261Z,8.50
2023-04-08T10:00:50.970Z,8.90
2023-04-08T10:03:31.949Z,9.07
2023-04-08T10:06:01.546Z,8.80
2023-04-08T10:08:29.053Z,8.67
2023-04-08T10:10:56.678Z,8.43
2023-04-08T10:13:25.820Z,9.20
2023-04-08T10:16:39.754Z,9.50
2023-04-08T10:19:41.585Z,9.67
2023-04-08T10:22:37.841Z,9.43
2023-04-08T10:25:39.437Z,10.23
2023-04-08T10:28:32.757Z,10.03
2023-04-08T10:31:01.232Z,12.53
2023-04-08T10:33:45.757Z,13.50
2023-04-08T10:36:15.378Z,13.80
2023-04-08T10:38:43.105Z,14.07
2023-04-08T10:41:21.702Z,15.50
2023-04-08T10:43:48.940Z,14.30
2023-04-08T10:46:17.362Z,13.67
2023-04-08T10:48:45.033Z,11.83
2023-04-08T10:51:12.209Z,12.93
2023-04-08T10:53:42.921Z,11.07
2023-04-08T10:56:15.589Z,11.90
2023-04-08T10:58:59.197Z,10.20
2023-04-08T11:01:27.449Z,10.97
2023-04-08T11:03:55.005Z,11.00
2023-04-08T11:06:22.322Z,9.13
2023-04-08T11:08:51.297Z,9.90
2023-04-08T11:11:19.561Z,9.80
2023-04-08T11:13:53.219Z,9.00
2023-04-08T11:16:22.548Z,10.47
2023-04-08T11:18:51.170Z,10.50
2023-04-08T11:21:18.269Z,9.30
2023-04-08T11:23:45.383Z,9.77
2023-04-08T11:26:13.784Z,9.20
2023-04-08T11:28:40.848Z,9.70
2023-04-08T11:31:09.235Z,8.73
2023-04-08T11:33:36.548Z,10.20
2023-04-08T11:36:04.910Z,10.40
2023-04-08T11:38:33.299Z,10.57
2023-04-08T11:41:00.666Z,10.40
2023-04-08T11:43:28.823Z,10.27
2023-04-08T11:45:55.921Z,11.73
2023-04-08T11:48:23.882Z,11.20
2023-04-08T11:51:09.080Z,11.50
2023-04-08T11:53:41.511Z,9.77
2023-04-08T11:56:27.631Z,10.80
2023-04-08T11:58:54.618Z,10.13
2023-04-08T12:01:21.899Z,11.17
2023-04-08T12:03:59.991Z,10.97
2023-04-08T12:06:28.085Z,11.03
2023-04-08T12:08:56.381Z,11.20
2023-04-08T12:11:25.549Z,10.53
2023-04-08T12:13:53.278Z,11.67
2023-04-08T12:16:20.943Z,10.17
2023-04-08T12:18:50.280Z,11.13
2023-04-08T12:21:17.408Z,10.47
2023-04-08T12:23:44.780Z,11.00
2023-04-08T12:26:11.897Z,10.60
2023-04-08T12:28:39.057Z,10.83
2023-04-08T12:31:06.376Z,18.40
2023-04-08T12:33:33.702Z,10.73
2023-04-08T12:36:00.908Z,10.80
2023-04-08T12:38:27.954Z,11.30
2023-04-08T12:40:55.616Z,10.93
2023-04-08T12:43:23.843Z,10.40
2023-04-08T12:45:51.863Z,9.90
2023-04-08T12:48:19.037Z,11.30
2023-04-08T12:50:46.253Z,10.80
2023-04-08T12:53:13.314Z,10.00
2023-04-08T12:55:40.344Z,11.20
2023-04-08T12:58:07.688Z,10.90
2023-04-08T13:00:37.994Z,11.73
2023-04-08T13:03:08.871Z,11.20
2023-04-08T13:05:43.320Z,10.57
2023-04-08T13:08:12.495Z,12.17
2023-04-08T13:10:40.000Z,11.63
2023-04-08T13:13:07.660Z,11.20
2023-04-08T13:15:34.837Z,11.10
2023-04-08T13:18:02.348Z,12.33
2023-04-08T13:20:29.366Z,13.07
2023-04-08T13:22:59.478Z,11.87
2023-04-08T13:25:26.581Z,11.07
2023-04-08T13:27:53.740Z,11.67
2023-04-08T13:30:21.350Z,11.70
2023-04-08T13:32:48.885Z,11.10
2023-04-08T13:35:16.545Z,11.33
2023-04-08T13:37:43.524Z,11.77
2023-04-08T13:40:10.968Z,12.57
2023-04-08T13:42:37.944Z,12.03
2023-04-08T13:45:05.386Z,13.33
2023-04-08T13:47:32.320Z,14.40
2023-04-08T13:49:59.660Z,12.60
2023-04-08T13:52:26.639Z,12.27
2023-04-08T13:54:53.767Z,13.43
2023-04-08T13:57:20.673Z,13.23
2023-04-08T13:59:47.666Z,13.43
2023-04-08T14:02:15.710Z,12.73
2023-04-08T14:04:43.709Z,15.20
2023-04-08T14:07:10.774Z,14.07
2023-04-08T14:09:37.734Z,12.97
2023-04-08T14:12:06.844Z,13.83
2023-04-08T14:14:33.752Z,13.73
2023-04-08T14:17:00.898Z,13.70
2023-04-08T14:19:28.901Z,13.00
2023-04-08T14:21:55.792Z,14.00
2023-04-08T14:24:22.975Z,14.00
2023-04-08T14:26:49.907Z,14.40
2023-04-08T14:29:16.873Z,13.87
2023-04-08T14:31:44.301Z,15.30
2023-04-08T14:34:11.637Z,15.67
2023-04-08T14:36:38.736Z,15.83
2023-04-08T14:39:05.666Z,14.33
2023-04-08T14:41:32.698Z,14.73
2023-04-08T14:44:00.682Z,15.00
2023-04-08T14:46:29.080Z,15.07
2023-04-08T14:48:56.576Z,15.43
2023-04-08T14:51:23.623Z,14.87
2023-04-08T14:53:50.510Z,14.50
2023-04-08T14:56:17.461Z,14.37
2023-04-08T14:58:44.749Z,15.77
2023-04-08T15:01:12.170Z,15.30
2023-04-08T15:03:40.757Z,15.47
2023-04-08T15:06:07.912Z,15.87
2023-04-08T15:08:35.352Z,16.30
2023-04-08T15:11:02.483Z,15.40
2023-04-08T15:13:29.465Z,15.87
2023-04-08T15:16:02.530Z,16.83
2023-04-08T15:18:29.518Z,16.47
2023-04-08T15:20:56.724Z,16.33
2023-04-08T15:23:24.207Z,15.90
2023-04-08T15:25:51.194Z,15.70
2023-04-08T15:28:18.087Z,16.33
2023-04-08T15:30:47.158Z,18.00
2023-04-08T15:33:14.538Z,17.03
2023-04-08T15:35:47.193Z,15.77
2023-04-08T15:38:15.227Z,17.37
2023-04-08T15:40:43.439Z,17.73
2023-04-08T15:43:12.568Z,18.60
2023-04-08T15:45:44.375Z,16.23
2023-04-08T15:48:14.399Z,16.43
2023-04-08T15:50:42.254Z,16.70
2023-04-08T15:53:09.321Z,17.90
2023-04-08T15:55:42.993Z,16.53
2023-04-08T15:58:12.321Z,19.07
2023-04-08T16:00:44.741Z,17.10
2023-04-08T16:03:13.856Z,17.00
2023-04-08T16:05:42.041Z,22.20
2023-04-08T16:08:10.790Z,17.03
2023-04-08T16:10:37.795Z,16.97
2023-04-08T16:13:04.817Z,19.57
2023-04-08T16:15:34.204Z,25.57
2023-04-08T16:18:03.276Z,19.13
2023-04-08T16:20:30.342Z,17.80
2023-04-08T16:22:57.734Z,18.33
2023-04-08T16:25:26.209Z,19.77
2023-04-08T16:27:55.072Z,18.73
2023-04-08T16:30:22.691Z,17.10
2023-04-08T16:32:50.656Z,17.60
2023-04-08T16:35:20.687Z,18.20
2023-04-08T16:37:47.746Z,16.67
2023-04-08T16:40:14.707Z,18.70
2023-04-08T16:42:42.037Z,18.67
2023-04-08T16:45:09.573Z,17.17
2023-04-08T16:47:37.593Z,19.23
2023-04-08T16:50:05.873Z,17.40
2023-04-08T16:52:33.044Z,18.70
2023-04-08T16:55:00.300Z,15.90
2023-04-08T16:57:27.467Z,17.40
2023-04-08T16:59:54.511Z,16.83
2023-04-08T17:02:21.956Z,18.20
2023-04-08T17:04:53.555Z,18.37
2023-04-08T17:07:22.547Z,18.23
2023-04-08T17:09:54.331Z,19.37
2023-04-08T17:12:21.415Z,22.87
2023-04-08T17:14:48.455Z,20.33
2023-04-08T17:17:15.570Z,20.03
2023-04-08T17:19:43.221Z,19.73
2023-04-08T17:22:11.500Z,20.20
2023-04-08T17:24:40.716Z,16.93
2023-04-08T17:27:09.503Z,18.37
2023-04-08T17:29:36.629Z,16.90
2023-04-08T17:32:04.165Z,21.00
2023-04-08T17:34:33.194Z,24.10
2023-04-08T17:37:00.227Z,23.97
2023-04-08T17:39:27.183Z,28.23
2023-04-08T17:41:54.073Z,23.47
2023-04-08T17:44:22.393Z,22.83
2023-04-08T17:46:49.440Z,32.13
2023-04-08T17:49:17.102Z,34.60
2023-04-08T17:51:43.988Z,44.20
2023-04-08T17:54:26.691Z,37.80
2023-04-08T17:56:53.688Z,28.73
2023-04-08T17:59:20.769Z,31.90
2023-04-08T18:05:29.200Z,24.73
2023-04-08T18:07:58.293Z,22.43
2023-04-08T18:10:27.503Z,28.10
2023-04-08T18:13:10.319Z,24.57
2023-04-08T18:15:40.102Z,29.50
2023-04-08T18:18:09.498Z,42.13
2023-04-08T18:20:37.332Z,41.53
2023-04-08T18:23:04.593Z,25.83
2023-04-08T18:25:34.623Z,21.90
2023-04-08T18:28:02.013Z,17.87
2023-04-08T18:30:30.467Z,19.97
2023-04-08T18:32:57.870Z,23.70
2023-04-08T18:35:25.585Z,25.00
2023-04-08T18:37:52.626Z,32.03
2023-04-08T18:40:20.325Z,19.50
2023-04-08T18:42:47.282Z,20.63
2023-04-08T18:45:14.316Z,19.00
2023-04-08T18:47:41.615Z,19.33
2023-04-08T18:50:09.700Z,19.50
2023-04-08T18:52:37.776Z,19.60
2023-04-08T18:55:05.468Z,19.70
2023-04-08T18:57:33.320Z,18.30
2023-04-08T19:00:00.486Z,21.07
2023-04-08T19:02:27.590Z,19.07
2023-04-08T19:04:57.882Z,19.50
2023-04-08T19:07:24.798Z,18.10
2023-04-08T19:09:57.696Z,20.67
2023-04-08T19:12:25.127Z,18.83
2023-04-08T19:14:52.451Z,19.20
2023-04-08T19:17:19.440Z,18.37
2023-04-08T19:19:46.516Z,20.30
2023-04-08T19:22:13.782Z,23.73
2023-04-08T19:24:40.711Z,27.70
2023-04-08T19:27:07.688Z,33.20
2023-04-08T19:29:34.941Z,40.80
2023-04-08T19:32:03.434Z,40.73
2023-04-08T19:34:30.570Z,45.40
2023-04-08T19:36:57.605Z,33.93
2023-04-08T19:39:26.666Z,38.27
2023-04-08T19:41:55.074Z,36.47
2023-04-08T19:44:21.990Z,26.03
2023-04-08T19:46:49.105Z,24.20
2023-04-08T19:49:16.293Z,21.80
2023-04-08T19:51:43.191Z,24.77
2023-04-08T19:54:10.080Z,24.43
2023-04-08T19:56:37.551Z,23.80
2023-04-08T19:59:04.538Z,36.60
2023-04-08T20:01:31.673Z,31.90
2023-04-08T20:03:58.769Z,21.40
2023-04-08T20:06:25.760Z,32.43
2023-04-08T20:08:53.704Z,31.57
2023-04-08T20:11:21.187Z,24.80
2023-04-08T20:13:49.453Z,20.80
2023-04-08T20:16:17.124Z,19.93
2023-04-08T20:18:44.356Z,19.80
2023-04-08T20:21:15.048Z,19.60
2023-04-08T20:23:44.569Z,21.90
2023-04-08T20:26:12.834Z,24.17
2023-04-08T20:28:40.526Z,21.90
2023-04-08T20:31:08.013Z,22.20
2023-04-08T20:33:37.979Z,34.47
2023-04-08T20:36:05.642Z,33.60
2023-04-08T20:38:35.411Z,32.47
2023-04-08T20:41:02.391Z,21.23
2023-04-08T20:43:29.464Z,20.40
2023-04-08T20:45:56.683Z,22.43
2023-04-08T20:48:23.764Z,20.63
2023-04-08T20:50:50.793Z,20.40
2023-04-08T20:53:19.626Z,21.37
2023-04-08T20:55:48.047Z,23.07
2023-04-08T20:58:15.031Z,22.43
2023-04-08T21:00:41.888Z,22.13
2023-04-08T21:03:11.773Z,21.37
2023-04-08T21:05:39.260Z,23.60
2023-04-08T21:08:06.439Z,23.40
2023-04-08T21:10:33.397Z,19.83
2023-04-08T21:13:01.229Z,23.53
2023-04-08T21:15:28.384Z,23.67
2023-04-08T21:17:55.916Z,23.57
2023-04-08T21:20:23.703Z,22.27
2023-04-08T21:22:54.009Z,20.87
2023-04-08T21:25:21.063Z,21.63
2023-04-08T21:27:48.102Z,21.83
2023-04-08T21:30:17.370Z,22.77
2023-04-08T21:32:47.592Z,25.87
2023-04-08T21:35:15.080Z,24.70
2023-04-08T21:37:42.241Z,24.97
2023-04-08T21:40:09.669Z,24.10
2023-04-08T21:42:36.662Z,23.80
2023-04-08T21:45:03.912Z,24.97
2023-04-08T21:47:32.090Z,23.80
2023-04-08T21:49:59.248Z,25.20
2023-04-08T21:52:26.879Z,24.13
2023-04-08T21:54:53.835Z,22.13
2023-04-08T21:57:26.298Z,20.27
2023-04-08T21:59:53.431Z,22.23
2023-04-08T22:02:20.725Z,22.13
2023-04-08T22:04:50.225Z,23.50
2023-04-08T22:07:17.559Z,24.70
2023-04-08T22:09:44.524Z,23.97
2023-04-08T22:12:14.241Z,24.73
2023-04-08T22:14:41.152Z,25.20
2023-04-08T22:17:08.844Z,24.47
2023-04-08T22:19:39.336Z,22.30
2023-04-08T22:22:06.338Z,23.90
2023-04-08T22:24:33.320Z,24.20
2023-04-08T22:27:01.252Z,23.40
2023-04-08T22:29:30.575Z,25.20
2023-04-08T22:31:58.236Z,25.53
2023-04-08T22:34:27.832Z,22.87
2023-04-08T22:36:55.033Z,22.47
2023-04-08T22:39:22.154Z,22.00
2023-04-08T22:41:49.281Z,29.53
2023-04-08T22:44:16.454Z,40.80
2023-04-08T22:46:45.955Z,33.60
2023-04-08T22:49:13.195Z,26.93
2023-04-08T22:51:40.772Z,26.43
2023-04-08T22:54:09.607Z,26.80
2023-04-08T22:56:36.730Z,27.37
2023-04-08T22:59:03.843Z,28.30
2023-04-08T23:01:31.034Z,29.23
2023-04-08T23:03:58.166Z,42.90
2023-04-08T23:06:27.473Z,29.57
2023-04-08T23:08:54.433Z,28.83
2023-04-08T23:11:21.403Z,28.93
2023-04-08T23:13:48.612Z,27.63
2023-04-08T23:16:15.622Z,29.80
2023-04-08T23:18:42.601Z,28.90
2023-04-08T23:21:09.598Z,34.43
2023-04-08T23:23:36.480Z,46.87
2023-04-08T23:26:17.444Z,62.33
2023-04-08T23:28:44.379Z,51.50
2023-04-08T23:31:11.720Z,41.70
2023-04-08T23:33:41.849Z,42.07
2023-04-08T23:36:09.866Z,41.63
2023-04-08T23:38:39.805Z,47.30
2023-04-08T23:41:07.637Z,48.17
2023-04-08T23:43:35.009Z,45.43
2023-04-08T23:46:02.048Z,41.87
2023-04-08T23:48:29.026Z,32.07
2023-04-08T23:50:56.183Z,33.47
2023-04-08T23:53:23.135Z,32.40
2023-04-08T23:55:50.380Z,30.20
2023-04-08T23:58:17.688Z,32.70
